ACU weather

Cucuyulapa Airport
Conduacan, Tabasco, Mexico

Public forecast

Using degrees Celsius for public forecast. Weather courtesy of forecast.io.

METAR (pilot weather report)

Closest report is Carlos Rovirosa Pérez International Airport, 24.3 nm (44.9 km) E. Retrieved 2019/08/24 19:43 UTC (0 seconds ago):

MMVA 241943Z 00000KT 5SM SKC 36/23 A2985 RMK HZY

TAF (pilot weather forecast)

Closest forecast is Carlos Rovirosa Pérez International Airport, 24.3 nm (44.9 km) E. Retrieved 2019/08/24 18:18 UTC (1 hour ago):

TAF MMVA 241612Z 2418/2518 12010KT 4SM HZ SCT015 SCT070 SCT220 FM250300 08006KT 6SM HZ SCT070 TEMPO 2510/2514 3SM BR HZ BKN010 FM251500 12005KT 5SM HZ SCT015 SCT220